Author Topic: Cumulus Question  (Read 1274 times)

0 Members and 1 Guest are viewing this topic.

Offline mkutche

  • Forecaster
  • *****
  • Posts: 917
    • GosportWx.com
Cumulus Question
« on: September 17, 2013, 08:21:08 PM »
not sure if its cumulus or my weather station but its showing clear when its cloudy outside.. im guessing its a metar thing cuz here is the update as of 7:53pm

METAR KBMG 172353Z 00000KT 10SM CLR 18/13 A3016 RMK AO2 SLP211 T01780133 10239 20178 58007

wish it would update constantly!!

Mike
« Last Edit: September 17, 2013, 08:36:48 PM by mkutche »
Mike K.
WS2080 - Cumulus MX b3043
Gosport, Indiana
Gosportwx.com Gosportwx.com/PWS/ Gosportwx.com/j-template/ twitter.com/GosportINWX facebook.com/GosportINWX
-----------------------------------------------------------

Offline PaulMy

  • Forecaster
  • *****
  • Posts: 4734
    • KomokaWeather
Re: Cumulus Question
« Reply #1 on: September 17, 2013, 10:39:13 PM »
Is one the current condition and the other a forecast (expected future condition)?

Paul

Offline piconut

  • Juggler Extraordinaire
  • Forecaster
  • *****
  • Posts: 359
    • South Austin Weather
Re: Cumulus Question
« Reply #2 on: September 17, 2013, 10:43:59 PM »
How far is the METAR station from you?
  • Davis Vantage Pro 2
  • Virtual VP
  • Virtual Weather Station V15.00
  • Cumulus
  • Image Salsa
  • IP TimeLapse